Birigui, Brazil
Current Conditions -  °F | °C
As of 7:00 AM on Sunday 23 Nov 2014 (Local Time) from SBSR Reporting Station
Overcast Overcast  
Wind Chill: 21°   Ceiling: 1500
Heat Index: 21°   Visibility: 4mi
Dew Point: 19°   Wind: 6mph
Humidity: 88%   Direction: 180°S
Pressure: 29.97"   Gusts: NA
Location:  21.29°S, 50.34°W
Report Text: SBSR 230900Z 18005KT 7000 SCT010 BKN015 OVC080 21/19 Q1015
Loading
Personal Weather Stations






























Interactive Weather Map New forecast layout! Learn more

10-Day Weather Forecast

Advertisements
Track Severe Weather on mobile